Celik 1 — 9HKY9 — position and weather

sailwx.info

Track history (hours):
 
Tides and Currents Weather Stations Pressure Air Temp Water Temp Dewpoint Dewpoint Depression Visibility Wind Speed Wind Dir Waves Ship Positions

Celik 1

Last reported at 2014-Jul-21 04:33 UTC. Time now 2014-Jul-25 18:25 UTC.
Position N 36°01' W 005°22'.

Length 121 m; draft 6.6 m.

Type: Cargo ship. MMSI: 249114000.

Date/timePositionNaut miles runAvg speedWind from/ knotsBaromVisibWave heightAir tempDewpointWater temp
2014-Jul-21 04:33N 36°01' W 005°22'  
2014-Jul-18 22:11N 37°03' E 003°27'16 9.3
2014-Jul-18 20:27N 37°06' E 003°47'910.0
2014-Jul-18 19:34N 37°07' E 003°58'10 9.7
2014-Jul-18 18:33N 37°08' E 004°10'10 9.6
2014-Jul-18 17:30N 37°09' E 004°22'9 9.4
2014-Jul-18 16:34N 37°11' E 004°33'10 9.6
2014-Jul-18 15:32N 37°12' E 004°46'9 9.7
2014-Jul-18 14:33N 37°13' E 004°57'10 9.6
2014-Jul-18 13:33N 37°14' E 005°10'10 9.7
2014-Jul-18 12:33N 37°14' E 005°22'10 9.7
2014-Jul-18 11:33N 37°14' E 005°34'10 9.8
2014-Jul-18 10:34N 37°15' E 005°46'1210.0
2014-Jul-18 09:20N 37°15' E 006°02'1110.3
2014-Jul-18 08:15N 37°16' E 006°15'910.7
2014-Jul-18 07:26N 37°16' E 006°26'910.6
2014-Jul-18 06:33N 37°16' E 006°38'10 9.9
2014-Jul-18 05:33N 37°16' E 006°51'12 9.2
2014-Jul-18 04:12N 37°17' E 007°06'16 9.6
2014-Jul-18 02:31N 37°17' E 007°27'14 9.4
2014-Jul-18 01:04N 37°18' E 007°44'510.2
2014-Jul-18 00:32N 37°18' E 007°51'3110.1
2014-Jul-17 21:29N 37°19' E 008°29'233 8.6
2014-Jul-16 18:29N 36°41' E 013°17'8 8.8
2014-Jul-16 17:33N 36°41' E 013°27'9 8.9
2014-Jul-16 16:33N 36°40' E 013°38'11 8.6
2014-Jul-16 15:18N 36°39' E 013°52'6 8.4
2014-Jul-16 14:34N 36°38' E 013°59'8 8.4
2014-Jul-16 13:33N 36°37' E 014°10'9 8.7
2014-Jul-16 12:33N 36°36' E 014°21'9 8.8
2014-Jul-16 11:34N 36°35' E 014°31'9 8.7
2014-Jul-16 10:34N 36°34' E 014°42'10 8.7
2014-Jul-16 09:23N 36°33' E 014°55'402 9.1
2014-Jul-14 13:28N 36°27' E 023°14'19 9.7
2014-Jul-14 11:33N 36°43' E 023°26'31 9.6
2014-Jul-14 08:22N 37°09' E 023°46'1210.3
2014-Jul-14 07:14N 37°19' E 023°54'810.5
2014-Jul-14 06:27N 37°26' E 023°59'10 9.8
2014-Jul-14 05:27N 37°34' E 024°06'1910.1
2014-Jul-14 03:33N 37°48' E 024°23'10 9.8
2014-Jul-14 02:29N 37°55' E 024°33'48 9.7
2014-Jul-13 21:33N 38°37' E 025°01'1210.1
2014-Jul-13 20:24N 38°47' E 025°08'9 9.7
2014-Jul-13 19:30N 38°55' E 025°13'73 9.9
2014-Jul-13 12:08N 39°60' E 025°58'5 9.2
2014-Jul-13 11:33N 40°01' E 026°05'55 5.4
2014-Jul-13 01:24N 40°33' E 027°03'103 5.2
2014-Jul-12 05:31N 41°16' E 029°06'  
Track history (hours):
 
Tides and Currents Weather Stations Pressure Air Temp Water Temp Dewpoint Dewpoint Depression Visibility Wind Speed Wind Dir Waves Ship Positions

Celik 1

Last reported at 2014-Jul-21 04:33 UTC. Time now 2014-Jul-25 18:25 UTC.
Position N 36°01' W 005°22'.

Length 121 m; draft 6.6 m.

Type: Cargo ship. MMSI: 249114000.

Date/timePositionNaut miles runAvg speedWind from/ knotsBaromVisibWave heightAir tempDewpointWater temp
2014-Jul-21 04:33N 36°01' W 005°22'  
2014-Jul-18 22:11N 37°03' E 003°27'16 9.3
2014-Jul-18 20:27N 37°06' E 003°47'910.0
2014-Jul-18 19:34N 37°07' E 003°58'10 9.7
2014-Jul-18 18:33N 37°08' E 004°10'10 9.6
2014-Jul-18 17:30N 37°09' E 004°22'9 9.4
2014-Jul-18 16:34N 37°11' E 004°33'10 9.6
2014-Jul-18 15:32N 37°12' E 004°46'9 9.7
2014-Jul-18 14:33N 37°13' E 004°57'10 9.6
2014-Jul-18 13:33N 37°14' E 005°10'10 9.7
2014-Jul-18 12:33N 37°14' E 005°22'10 9.7
2014-Jul-18 11:33N 37°14' E 005°34'10 9.8
2014-Jul-18 10:34N 37°15' E 005°46'1210.0
2014-Jul-18 09:20N 37°15' E 006°02'1110.3
2014-Jul-18 08:15N 37°16' E 006°15'910.7
2014-Jul-18 07:26N 37°16' E 006°26'910.6
2014-Jul-18 06:33N 37°16' E 006°38'10 9.9
2014-Jul-18 05:33N 37°16' E 006°51'12 9.2
2014-Jul-18 04:12N 37°17' E 007°06'16 9.6
2014-Jul-18 02:31N 37°17' E 007°27'14 9.4
2014-Jul-18 01:04N 37°18' E 007°44'510.2
2014-Jul-18 00:32N 37°18' E 007°51'3110.1
2014-Jul-17 21:29N 37°19' E 008°29'233 8.6
2014-Jul-16 18:29N 36°41' E 013°17'8 8.8
2014-Jul-16 17:33N 36°41' E 013°27'9 8.9
2014-Jul-16 16:33N 36°40' E 013°38'11 8.6
2014-Jul-16 15:18N 36°39' E 013°52'6 8.4
2014-Jul-16 14:34N 36°38' E 013°59'8 8.4
2014-Jul-16 13:33N 36°37' E 014°10'9 8.7
2014-Jul-16 12:33N 36°36' E 014°21'9 8.8
2014-Jul-16 11:34N 36°35' E 014°31'9 8.7
2014-Jul-16 10:34N 36°34' E 014°42'10 8.7
2014-Jul-16 09:23N 36°33' E 014°55'402 9.1
2014-Jul-14 13:28N 36°27' E 023°14'19 9.7
2014-Jul-14 11:33N 36°43' E 023°26'31 9.6
2014-Jul-14 08:22N 37°09' E 023°46'1210.3
2014-Jul-14 07:14N 37°19' E 023°54'810.5
2014-Jul-14 06:27N 37°26' E 023°59'10 9.8
2014-Jul-14 05:27N 37°34' E 024°06'1910.1
2014-Jul-14 03:33N 37°48' E 024°23'10 9.8
2014-Jul-14 02:29N 37°55' E 024°33'48 9.7
2014-Jul-13 21:33N 38°37' E 025°01'1210.1
2014-Jul-13 20:24N 38°47' E 025°08'9 9.7
2014-Jul-13 19:30N 38°55' E 025°13'73 9.9
2014-Jul-13 12:08N 39°60' E 025°58'5 9.2
2014-Jul-13 11:33N 40°01' E 026°05'55 5.4
2014-Jul-13 01:24N 40°33' E 027°03'103 5.2
2014-Jul-12 05:31N 41°16' E 029°06'  

Dump ship's entire track history